Tiempo atmosférico en la estación meteorológica de Miranda De Ebro, Burgos (512 m.)



Fecha
DESCASC
Temp. máxima en grados centígrados (hora)
DESCASC
Temp. mínima en grados centígrados (hora)
DESCASC
Temp. media en grados centígrados
DESCASC
Racha de viento máxima en m/sg (hora)
DESCASC
Velocidad máxima media en intervalos de 10 minutos(hora)
DESCASC
Precipitaciones diarias en mm
DESCASC
Precipitaciones de 00:00 a 06:00 en mm
DESCASC
Precipitaciones de 06:00 a 12:00 en mm
DESCASC
Precipitaciones de 12:00 a 18:00 en mm
DESCASC
Precipitaciones de 18:00 a 24:00 en mm
DESCASC
05-04-2020 20 (16:40) 9.7 (07:50) 14.8 9.44 (14:10) 4.72 (16:00) 0 0 0 0 0
04-04-2020 21.5 (16:10) -0.5 (08:20) 10.5 11.67 (22:20) 5.56 (17:00) 0 0 0 0 0
03-04-2020 17.7 (18:50) 0.8 (07:40) 9.3 4.44 (19:50) 2.22 (19:50) 0 0 0 0 0
02-04-2020 14.4 (17:10) 5 (00:00) 9.7 9.44 (17:20) 5.83 (17:20) 1 1 0 0 0
01-04-2020 13.5 (16:50) 7.6 (00:00) 10.5 10.28 (00:40) 5.28 (01:10) 3.2 0 2.4 0.2 0.6
31-03-2020 8.6 (23:00) 1 (00:00) 4.8 10.56 (17:20) 5.83 (23:10) 4 0 0 4 0
30-03-2020 7.4 (14:30) 1.1 (00:00) 4.3 8.61 (12:10) 5.28 (15:00) 0 0 0 0 0
29-03-2020 15.2 (15:30) -1 (-00:0) 7.1 8.06 (17:20) 5.28 (17:20) 0 0 0 0 0
28-03-2020 18.7 (16:10) -1.3 (-00:0) 8.7 6.11 (18:10) 3.33 (17:50) 0 0 0 0 0
27-03-2020 15.7 (17:40) -2.1 (-00:0) 6.8 5.56 (15:40) 3.06 (18:30) 0 0 0 0 0
26-03-2020 11.9 (14:40) 1.1 (00:00) 6.5 10.56 (14:30) 5.83 (16:10) 0 0 0 0 0
25-03-2020 19.1 (15:10) 2.7 (00:00) 10.9 7.5 (16:30) 5.28 (16:30) 0 0 0 0 0
24-03-2020 19 (17:10) 4.4 (00:00) 11.7 7.5 (12:00) 3.89 (12:40) 0 0 0 0 0
23-03-2020 17.8 (15:30) 7.1 (00:00) 12.4 6.67 (16:40) 3.33 (20:50) 0 0 0 0 0
22-03-2020 20 (14:50) 2.4 (07:00) 11.2 8.06 (16:20) 4.72 (16:30) 0 0 0 0 0
21-03-2020 19.2 (15:10) 4.3 (00:00) 11.8 5.83 (16:30) 3.33 (16:30) 0 0 0 0 0
20-03-2020 16.4 (15:50) 4.6 (00:00) 10.5 11.11 (16:10) 4.72 (12:30) 0 0 0 0 0
19-03-2020 19.2 (16:50) 6 (00:00) 12.6 7.5 (17:40) 3.89 (15:50) 0 0 0 0 0
18-03-2020 17 (15:00) 5.6 (00:00) 11.3 5.28 (13:30) 2.5 (13:30) 0 0 0 0 0
17-03-2020 11.7 (17:50) 6.6 (00:00) 9.1 5.28 (06:30) 2.78 (06:50) 2.8 2.4 0.4 0 0
16-03-2020 8.7 (16:40) 3.5 (00:00) 6.1 7.78 (17:30) 3.61 (17:30) 25.2 10.6 7 5.6 2
15-03-2020 21.8 (17:00) -0.9 (-00:0) 10.4 8.61 (18:10) 5 (18:10) 6.2 0 0 0 6.2
14-03-2020 18.3 (17:00) -2.1 (-00:0) 8.1 4.44 (18:10) 2.5 (17:40) 0 0 0 0 0
13-03-2020 12.4 (18:10) 1.7 (23:59) 7 6.11 (11:40) 3.61 (11:40) 0 0 0 0 0
12-03-2020 14.1 (13:20) 6.5 (00:00) 10.3 6.39 (14:00) 3.89 (13:50) 0 0 0 0 0
11-03-2020 26.3 (16:40) 1.6 (00:00) 13.9 6.11 (17:10) 3.61 (17:10) 0 0 0 0 0
10-03-2020 24.4 (17:10) 2.3 (00:00) 13.3 7.5 (13:40) 3.61 (13:50) 0 0 0 0 0
09-03-2020 12.9 (17:20) 3.8 (00:00) 8.3 8.61 (10:10) 5.28 (13:10) 0.4 0 0.4 0 0
08-03-2020 15.6 (13:30) 0.6 (00:00) 8.1 9.17 (15:40) 5.28 (15:40) 0.2 0 0 0 0.2

Gráficas

Temp. máximas Temp. mínimas Temp. medias Precipitaciones Rachas de viento máximas Velocidades máximas media en intervalos de 10 minutos

Datos horarios

Fecha y hora oficial Temperatura (ºC) Velocidad del viento (km/h) Dirección del viento Racha (km/h) Dirección de racha Precipitación (mm) Presión (hPa) Tendencia (hPa) Humedad (%)
2020-04-06 23:00:00 11.2 3 Sur 6 Este 0.2 -- -- 95
2020-04-06 22:00:00 11.2 0 Calma 9 Oeste 3.2 -- -- 95
2020-04-06 21:00:00 11.7 5 Noroeste 7 Noroeste 0.4 -- -- 91
2020-04-06 20:00:00 12.2 4 Nordeste 10 Nordeste 0 -- -- 86
2020-04-06 19:00:00 12.5 7 Este 17 Sudeste 0 -- -- 84
2020-04-06 18:00:00 12.4 9 Sudeste 18 Sur 1.2 -- -- 90
2020-04-06 17:00:00 14.5 6 Sudeste 19 Sudeste 0 -- -- 72
2020-04-06 16:00:00 14.7 10 Sur 23 Sudeste 0 -- -- 70
2020-04-06 15:00:00 13.8 8 Sur 23 Sur 0 -- -- 73
2020-04-06 14:00:00 14.5 11 Sur 29 Sudeste 0 -- -- 71
2020-04-06 13:00:00 14.1 14 Sudeste 31 Sudeste 0 -- -- 74
2020-04-06 12:00:00 12.5 14 Sudeste 26 Sudeste 0 -- -- 78
2020-04-06 11:00:00 12.3 13 Sudeste 22 Sudeste 0 -- -- 80
2020-04-06 10:00:00 11.3 4 Este 8 Norte 0 -- -- 83
2020-04-06 09:00:00 10.9 3 Oeste 6 Norte 0 -- -- 89
2020-04-06 08:00:00 10.6 5 Norte 12 Noroeste 0 -- -- 89
2020-04-06 07:00:00 10.8 8 Noroeste 12 Noroeste 0 -- -- 89
2020-04-06 06:00:00 10.7 5 Noroeste 13 Norte 0 -- -- 91
2020-04-06 05:00:00 11.1 3 Norte 13 Nordeste 0 -- -- 90
2020-04-06 04:00:00 11.3 2 Noroeste 15 Sur 0.2 -- -- 89
2020-04-06 03:00:00 11.5 11 Sudeste 23 Sur 0.8 -- -- 86
2020-04-06 02:00:00 12.7 12 Sur 27 Sur 0 -- -- 77
2020-04-06 01:00:00 13.8 12 Sur 21 Sur 0 -- -- 67
2020-04-06 00:00:00 14.4 5 Sudeste 15 Sudeste 0 -- -- 64
2020-04-05 23:00:00 15 8 Sudeste 18 Sudeste 0 -- -- 62
2020-04-05 22:00:00 15.5 10 Sudeste 22 Sudeste 0 -- -- 60
2020-04-05 21:00:00 16.2 7 Este 27 Sudeste 0 -- -- 58
2020-04-05 20:00:00 16.6 15 Sudeste 30 Sudeste 0 -- -- 58
2020-04-05 19:00:00 17.4 14 Sudeste 28 Sudeste 0 -- -- 56
2020-04-05 18:00:00 18.8 12 Sudeste 34 Este 0 -- -- 53
2020-04-05 17:00:00 18.8 15 Sudeste 32 Sudeste 0 -- -- 52
2020-04-05 16:00:00 18.5 17 Sudeste 29 Este 0 -- -- 54
2020-04-05 15:00:00 19.3 14 Sudeste 34 Sudeste 0 -- -- 53
2020-04-05 14:00:00 17.9 14 Sur 31 Sur 0 -- -- 53
2020-04-05 13:00:00 17 13 Sur 29 Sur 0 -- -- 54
2020-04-05 12:00:00 15.6 11 Sur 27 Sur 0 -- -- 58
2020-04-05 11:00:00 14.8 10 Sudeste 24 Sudeste 0 -- -- 60
2020-04-05 10:00:00 10.8 12 Sur 26 Sur 0 -- -- 71
2020-04-05 09:00:00 9.9 9 Sur 22 Sur 0 -- -- 74
2020-04-05 08:00:00 9.7 3 Sudoeste 22 Sur 0 -- -- 75
2020-04-05 07:00:00 10.2 11 Sur 21 Sudeste 0 -- -- 73
2020-04-05 06:00:00 10.4 10 Sur 22 Sudeste 0 -- -- 72
2020-04-05 05:00:00 11.2 11 Sudeste 22 Sudeste 0 -- -- 70
2020-04-05 04:00:00 11.6 12 Sudeste 26 Sudeste 0 -- -- 70
2020-04-05 03:00:00 12 5 Nordeste 27 Sudeste 0 -- -- 71
2020-04-05 02:00:00 12.8 11 Sudeste 24 Sur 0 -- -- 68
2020-04-05 01:00:00 13.6 14 Sur 26 Sudeste 0 -- -- 64
2020-04-05 00:00:00 14.1 12 Sur 23 Sur 0 -- -- 62
2020-04-04 23:00:00 14.9 11 Sur 42 Sudeste 0 -- -- 56
2020-04-04 22:00:00 15.5 18 Sudeste 35 Sudeste 0 -- -- 53
2020-04-04 21:00:00 15.6 14 Sudeste 31 Sudeste 0 -- -- 54
2020-04-04 20:00:00 16.8 12 Sudeste 32 Sudeste 0 -- -- 49
2020-04-04 19:00:00 20 13 Sudeste 27 Sudeste 0 -- -- 41
2020-04-04 18:00:00 21.3 13 Sudeste 35 Sudeste 0 -- -- 39
2020-04-04 17:00:00 20.9 20 Sudeste 33 Sudeste 0 -- -- 40
2020-04-04 16:00:00 21 15 Sudeste 32 Sur 0 -- -- 40
2020-04-04 15:00:00 20.8 13 Sudeste 24 Sudeste 0 -- -- 40
2020-04-04 14:00:00 18 6 Norte 19 Norte 0 -- -- 51
2020-04-04 13:00:00 15.4 4 Norte 11 Noroeste 0 -- -- 61
2020-04-04 12:00:00 13.8 2 Oeste 7 Oeste 0 -- -- 57
2020-04-04 11:00:00 10.1 3 Noroeste 6 Norte 0 -- -- 67
2020-04-04 10:00:00 3.2 2 Noroeste 4 Norte 0 -- -- 95
2020-04-04 09:00:00 0.5 2 Noroeste 5 Noroeste 0 -- -- 95
2020-04-04 08:00:00 -0.4 0 Calma 3 Noroeste 0 -- -- 96
2020-04-04 07:00:00 -0.1 0 Calma 5 Oeste 0 -- -- 96
2020-04-04 06:00:00 -0.2 2 Noroeste 3 Noroeste 0 -- -- 96
2020-04-04 05:00:00 0.4 0 Calma 5 Oeste 0 -- -- 95
2020-04-04 04:00:00 1 2 Noroeste 3 Noroeste -- -- -- 95
2020-04-04 03:00:00 1.5 0 Calma 3 Noroeste 0 -- -- 94
2020-04-04 02:00:00 2.5 3 Oeste 5 Oeste 0 -- -- 93
2020-04-04 01:00:00 3.3 0 Calma 4 Oeste 0 -- -- 92
2020-04-04 00:00:00 4.3 0 Calma 5 Noroeste 0 -- -- 89
2020-04-03 23:00:00 6 0 Calma 6 Noroeste 0 -- -- 82
2020-04-03 22:00:00 9.8 2 Sudeste 12 Este 0 -- -- 65
2020-04-03 21:00:00 11.3 4 Nordeste 12 Nordeste 0 -- -- 62
2020-04-03 20:00:00 15.1 8 Nordeste 16 Nordeste 0 -- -- 47
2020-04-03 19:00:00 17.1 6 Nordeste 13 Nordeste 0 -- -- 42
2020-04-03 18:00:00 17.6 6 Nordeste 13 Este 0 -- -- 42
2020-04-03 17:00:00 15.9 7 Nordeste 14 Nordeste 0 -- -- 43
2020-04-03 16:00:00 16.2 5 Sudeste 14 Nordeste 0 -- -- 47
2020-04-03 15:00:00 14.1 7 Este 14 Nordeste 0 -- -- 50
2020-04-03 14:00:00 13.2 4 Norte 13 Sudeste 0 -- -- 52
2020-04-03 13:00:00 11.3 5 Noroeste 11 Noroeste 0 -- -- 54
2020-04-03 12:00:00 11.1 4 Sudeste 9 Sudeste 0 -- -- 56
2020-04-03 11:00:00 9.5 3 Nordeste 6 Oeste 0 -- -- 65
2020-04-03 10:00:00 5 3 Noroeste 5 Noroeste 0 -- -- 84
2020-04-03 09:00:00 4.3 3 Sudeste 8 Sudeste 0 -- -- 90
2020-04-03 08:00:00 0.9 4 Este 8 Sudeste 0 -- -- 95
2020-04-03 07:00:00 1.5 0 Calma 6 Oeste 0 -- -- 93
2020-04-03 06:00:00 2 4 Oeste 6 Noroeste 0 -- -- 94
2020-04-03 05:00:00 1.2 0 Calma 6 Oeste 0 -- -- 91
2020-04-03 04:00:00 1.7 3 Oeste 6 Noroeste 0 -- -- 93
2020-04-03 03:00:00 3.3 6 Noroeste 8 Noroeste 0 -- -- 85
2020-04-03 02:00:00 2.9 0 Calma 5 Sur 0 -- -- 89
2020-04-03 01:00:00 4.2 3 Norte 9 Norte 0 -- -- 88
2020-04-03 00:00:00 5 2 Noroeste 9 Noroeste 0 -- -- 85
2020-04-02 23:00:00 6.4 6 Noroeste 12 Noroeste 0 -- -- 75
2020-04-02 22:00:00 6.9 3 Oeste 8 Oeste 0 -- -- 75
2020-04-02 21:00:00 7.7 4 Norte 11 Nordeste 0 -- -- 79
2020-04-02 20:00:00 11 5 Norte 22 Norte 0 -- -- 67
2020-04-02 19:00:00 12.9 13 Norte 31 Norte 0 -- -- 56
2020-04-02 18:00:00 12.7 18 Norte 34 Norte 0 -- -- 61
2020-04-02 17:00:00 13.7 13 Norte 25 Norte 0 -- -- 61
2020-04-02 16:00:00 12.8 8 Norte 24 Norte 0 -- -- 67
2020-04-02 15:00:00 11.1 6 Norte 28 Nordeste 0 -- -- 74
2020-04-02 14:00:00 13.3 12 Noroeste 24 Norte 0 -- -- 70
2020-04-02 13:00:00 12.5 10 Nordeste 18 Nordeste 0 -- -- 72
2020-04-02 12:00:00 11 2 Noroeste 5 Norte 0 -- -- 83
2020-04-02 11:00:00 9.9 0 Calma 3 Sur 0 -- -- 88
2020-04-02 10:00:00 10 0 Calma 5 Sudoeste 0 -- -- 89
2020-04-02 09:00:00 8.3 2 Sur 4 Sudoeste 0 -- -- 97
2020-04-02 08:00:00 8 0 Calma 3 Oeste 0 -- -- 97
2020-04-02 07:00:00 8 0 Calma 5 Sudoeste 0 -- -- 96
2020-04-02 06:00:00 8 2 Oeste 4 Sudoeste 0 -- -- 97
2020-04-02 05:00:00 8 0 Calma 7 Oeste 0.2 -- -- 96
2020-04-02 04:00:00 8.1 3 Noroeste 5 Oeste 0.2 -- -- 96
2020-04-02 03:00:00 8.3 3 Oeste 5 Sudoeste 0.4 -- -- 95
2020-04-02 02:00:00 8.3 0 Calma 4 Sudoeste 0.2 -- -- 95
2020-04-02 01:00:00 8.4 3 Sudoeste 5 Sudoeste 0 -- -- 94
2020-04-02 00:00:00 8.5 0 Calma 6 Este 0.6 -- -- 93
2020-04-01 23:00:00 8.7 3 Nordeste 8 Nordeste 0 -- -- 90
2020-04-01 22:00:00 9 5 Nordeste 9 Nordeste 0 -- -- 89
2020-04-01 21:00:00 9.9 5 Nordeste 12 Nordeste 0 -- -- 83
2020-04-01 20:00:00 10.7 4 Sur 9 Sudeste 0 -- -- 77
2020-04-01 19:00:00 11 5 Sudeste 23 Este 0 -- -- 74
2020-04-01 18:00:00 12.4 3 Norte 12 Nordeste 0 -- -- 67
2020-04-01 17:00:00 13.3 2 Nordeste 22 Sudeste 0 -- -- 61
2020-04-01 16:00:00 12.7 10 Sudeste 21 Sudeste 0 -- -- 67
2020-04-01 15:00:00 12.5 5 Nordeste 18 Este 0 -- -- 68
2020-04-01 14:00:00 12.9 3 Nordeste 14 Sudeste 0 -- -- 70
2020-04-01 13:00:00 10.8 7 Este 26 Sur 0.2 -- -- 77
2020-04-01 12:00:00 9.5 10 Sudeste 19 Sur 0 -- -- 83
2020-04-01 11:00:00 8.7 3 Oeste 8 Este 0.6 -- -- 88
2020-04-01 10:00:00 8.1 0 Calma 9 Sur 1.2 -- -- 92
2020-04-01 09:00:00 7.9 4 Sur 12 Este 0.6 -- -- 89
2020-04-01 08:00:00 7.6 3 Norte 13 Sudeste 0 -- -- 89
2020-04-01 07:00:00 8.5 5 Este 27 Sudeste 0 -- -- 83
2020-04-01 06:00:00 8.6 11 Sudeste 20 Este 0 -- -- 82
2020-04-01 05:00:00 8.6 9 Este 29 Sudeste 0 -- -- 83
2020-04-01 04:00:00 8.8 9 Este 27 Sudeste 0 -- -- 81
2020-04-01 03:00:00 8.8 15 Sudeste 36 Este 0 -- -- 81
2020-04-01 02:00:00 8.8 14 Sudeste 36 Sudeste 0 -- -- 80
2020-04-01 01:00:00 8.7 17 Sudeste 37 Sudeste 0 -- -- 81
2020-04-01 00:00:00 8.4 14 Sudeste 37 Sudeste 0 -- -- 83
2020-03-31 23:00:00 8.6 21 Sudeste 43 Sudeste 0 -- -- 82
2020-03-31 22:00:00 8.3 9 Sudeste 29 Este 0 -- -- 82
2020-03-31 21:00:00 8.1 12 Sudeste 29 Sudeste 0 -- -- 82
2020-03-31 20:00:00 7.9 12 Sudeste 31 Sudeste 0 -- -- 82
2020-03-31 19:00:00 8.3 12 Sudeste 27 Sudeste 0 -- -- 80
2020-03-31 18:00:00 7.7 16 Sudeste 38 Sudeste 0.2 -- -- 81
2020-03-31 17:00:00 7.2 17 Sudeste 36 Sudeste 0.2 -- -- 82
2020-03-31 16:00:00 6.4 3 Nordeste 13 Nordeste 0 -- -- 89
2020-03-31 15:00:00 4.8 5 Oeste 10 Oeste 1.4 -- -- 90
2020-03-31 14:00:00 5 2 Oeste 9 Sudeste 1.4 -- -- 86
2020-03-31 13:00:00 4.5 6 Este 14 Nordeste 0.8 -- -- 86
2020-03-31 12:00:00 4.1 6 Nordeste 15 Nordeste 0 -- -- 81
2020-03-31 11:00:00 3.7 7 Este 14 Este 0 -- -- 78
2020-03-31 10:00:00 3 6 Nordeste 11 Nordeste 0 -- -- 79
2020-03-31 09:00:00 1.8 6 Nordeste 12 Este 0 -- -- 86
2020-03-31 08:00:00 1.3 4 Nordeste 10 Nordeste 0 -- -- 89
2020-03-31 07:00:00 1.2 4 Nordeste 9 Nordeste 0 -- -- 89
2020-03-31 06:00:00 1.4 3 Nordeste 7 Nordeste 0 -- -- 85
2020-03-31 05:00:00 1.2 4 Norte 8 Nordeste 0 -- -- 85
2020-03-31 04:00:00 1 0 Calma 4 Noroeste 0 -- -- 87
2020-03-31 03:00:00 1 2 Sur 6 Este 0 -- -- 85
2020-03-31 02:00:00 1.2 0 Calma 8 Nordeste 0 -- -- 85
2020-03-31 01:00:00 1.1 4 Sudeste 7 Sudeste 0 -- -- 86
2020-03-31 00:00:00 1.1 4 Norte 9 Norte 0 -- -- 84
2020-03-30 23:00:00 2.2 4 Norte 10 Nordeste 0 -- -- 79
2020-03-30 22:00:00 3 6 Nordeste 14 Nordeste 0 -- -- 76
2020-03-30 21:00:00 3.5 8 Nordeste 17 Norte 0 -- -- 76
2020-03-30 20:00:00 4.3 8 Norte 21 Norte 0 -- -- 65
2020-03-30 19:00:00 5.9 18 Norte 30 Norte 0 -- -- 59
2020-03-30 18:00:00 6 15 Norte 27 Norte 0 -- -- 65
2020-03-30 17:00:00 5.7 14 Norte 28 Noroeste 0 -- -- 60
2020-03-30 16:00:00 7.2 14 Noroeste 25 Norte 0 -- -- 62
2020-03-30 15:00:00 4.9 19 Noroeste 31 Norte 0 -- -- 67
2020-03-30 14:00:00 6.9 8 Nordeste 24 Nordeste 0 -- -- 56
2020-03-30 13:00:00 5 15 Norte 31 Noroeste 0 -- -- 61
2020-03-30 12:00:00 5.5 14 Nordeste 27 Norte 0 -- -- 59
2020-03-30 11:00:00 5.6 15 Norte 24 Norte 0 -- -- 58
2020-03-30 10:00:00 3.6 8 Norte 20 Nordeste 0 -- -- 69
2020-03-30 09:00:00 3 4 Norte 17 Norte 0 -- -- 77
2020-03-30 08:00:00 1.4 6 Nordeste 15 Norte 0 -- -- 88
2020-03-30 07:00:00 2.6 6 Nordeste 14 Norte 0 -- -- 75
2020-03-30 06:00:00 3 4 Noroeste 8 Oeste 0 -- -- 79
2020-03-30 05:00:00 3.3 4 Norte 15 Norte 0 -- -- 74
2020-03-30 04:00:00 3.9 9 Norte 22 Norte 0 -- -- 74
2020-03-30 03:00:00 4.2 9 Norte 21 Norte 0 -- -- 81
2020-03-30 02:00:00 4.8 10 Norte 20 Norte 0 -- -- 79
2020-03-30 01:00:00 5.1 12 Norte 26 Norte 0 -- -- 78
2020-03-30 00:00:00 6 10 Norte 24 Norte 0 -- -- 76
2020-03-29 23:00:00 6.8 10 Norte 18 Noroeste 0 -- -- 78
2020-03-29 22:00:00 7 12 Norte 22 Norte 0 -- -- 84
2020-03-29 21:00:00 7.7 12 Norte 21 Norte 0 -- -- 80
2020-03-29 20:00:00 8 13 Norte 22 Noroeste 0 -- -- 81
2020-03-29 19:00:00 9 9 Norte 25 Norte 0 -- -- 78
2020-03-29 18:00:00 11 14 Norte 29 Norte 0 -- -- 70
2020-03-29 17:00:00 13 13 Norte 26 Nordeste 0 -- -- 57
2020-03-29 16:00:00 14.3 10 Norte 25 Nordeste 0 -- -- 49
2020-03-29 15:00:00 14.7 12 Norte 26 Este 0 -- -- 47
2020-03-29 14:00:00 14.3 10 Norte 24 Nordeste 0 -- -- 50
2020-03-29 13:00:00 14.9 3 Sudeste 10 Sudoeste 0 -- -- 51
2020-03-29 12:00:00 12.2 3 Oeste 8 Sudoeste 0 -- -- 59
2020-03-29 11:00:00 10.4 2 Noroeste 5 Norte 0 -- -- 62
2020-03-29 10:00:00 3.7 2 Norte 6 Oeste 0 -- -- 85
2020-03-29 09:00:00 1.7 2 Noroeste 8 Oeste 0 -- -- 90
2020-03-29 08:00:00 -0.8 0 Calma 6 Oeste 0 -- -- 94
2020-03-29 07:00:00 -0.7 3 Noroeste 5 Noroeste 0 -- -- 94
2020-03-29 06:00:00 0.1 0 Calma 5 Oeste 0 -- -- 93
2020-03-29 05:00:00 1.2 3 Oeste 7 Sudoeste 0 -- -- 91
2020-03-29 03:00:00 2 0 Calma 8 Oeste 0 -- -- 88
2020-03-29 01:00:00 3 2 Oeste 6 Noroeste 0 -- -- 86
2020-03-29 00:00:00 4.6 0 Calma 7 Sudoeste 0 -- -- 81
2020-03-28 23:00:00 6.5 0 Calma 6 Sur 0 -- -- 74
2020-03-28 22:00:00 7.2 0 Calma 9 Este 0 -- -- 75
2020-03-28 21:00:00 10.1 4 Este 12 Este 0 -- -- 63
2020-03-28 20:00:00 11.7 4 Nordeste 16 Nordeste 0 -- -- 60
2020-03-28 19:00:00 14.4 9 Nordeste 22 Nordeste 0 -- -- 53
2020-03-28 18:00:00 17.3 10 Nordeste 21 Nordeste 0 -- -- 41
2020-03-28 17:00:00 17.9 7 Nordeste 15 Este 0 -- -- 38
2020-03-28 16:00:00 17.6 7 Este 14 Nordeste 0 -- -- 40
2020-03-28 15:00:00 17.7 3 Nordeste 9 Este 0 -- -- 43
2020-03-28 14:00:00 16.5 3 Norte 10 Este 0 -- -- 40
2020-03-28 13:00:00 15.7 3 Sudeste 9 Este 0 -- -- 40
2020-03-28 12:00:00 13.8 3 Norte 8 Nordeste 0 -- -- 55
2020-03-28 11:00:00 10.8 3 Noroeste 8 Nordeste 0 -- -- 63
2020-03-28 10:00:00 7.8 3 Noroeste 7 Noroeste 0 -- -- 71
2020-03-28 09:00:00 2.3 0 Calma 5 Noroeste 0 -- -- 87
2020-03-28 08:00:00 0.6 0 Calma 4 Oeste 0 -- -- 92
2020-03-28 07:00:00 -0.7 3 Oeste 5 Oeste 0 -- -- 94
2020-03-28 06:00:00 -1.1 0 Calma 5 Oeste 0 -- -- 94
2020-03-28 05:00:00 -0.6 3 Oeste 5 Oeste 0 -- -- 94
2020-03-28 04:00:00 -0.3 2 Norte 5 Oeste 0 -- -- 92
2020-03-28 03:00:00 1.3 3 Oeste 6 Sudoeste 0 -- -- 88
2020-03-28 02:00:00 1.2 3 Oeste 7 Oeste 0 -- -- 90
2020-03-28 01:00:00 2.1 2 Oeste 6 Oeste 0 -- -- 87
2020-03-28 00:00:00 2.6 2 Oeste 7 Oeste 0 -- -- 87
2020-03-27 23:00:00 4 3 Oeste 8 Noroeste 0 -- -- 82
2020-03-27 22:00:00 6 0 Calma 12 Este 0 -- -- 76
2020-03-27 21:00:00 7.9 4 Este 13 Este 0 -- -- 68
2020-03-27 20:00:00 9.8 5 Nordeste 18 Nordeste 0 -- -- 60
2020-03-27 19:00:00 13.1 9 Nordeste 19 Nordeste 0 -- -- 44
2020-03-27 18:00:00 15 9 Nordeste 18 Nordeste 0 -- -- 37
2020-03-27 17:00:00 15.5 5 Nordeste 19 Nordeste 0 -- -- 36
2020-03-27 16:00:00 15.5 3 Nordeste 20 Norte 0 -- -- 33
2020-03-27 15:00:00 14.9 8 Nordeste 18 Nordeste 0 -- -- 39
2020-03-27 14:00:00 13.6 8 Nordeste 19 Nordeste 0 -- -- 41
2020-03-27 13:00:00 12.5 6 Nordeste 18 Nordeste 0 -- -- 44
2020-03-27 12:00:00 11.2 4 Norte 13 Noroeste 0 -- -- 51
2020-03-27 11:00:00 8.9 2 Sudoeste 7 Sudoeste 0 -- -- 58
2020-03-27 10:00:00 6.2 4 Oeste 8 Oeste 0 -- -- 71
2020-03-27 09:00:00 1.2 4 Noroeste 6 Noroeste 0 -- -- 87
2020-03-27 08:00:00 -0.7 2 Oeste 6 Noroeste 0 -- -- 93
2020-03-27 07:00:00 -2.1 0 Calma 6 Oeste 0 -- -- 92
2020-03-27 06:00:00 -1.1 3 Oeste 5 Sudoeste 0 -- -- 93
2020-03-27 05:00:00 -1.9 0 Calma 4 Noroeste 0 -- -- 92
2020-03-27 04:00:00 -1.2 3 Sur 5 Oeste 0 -- -- 91
2020-03-27 03:00:00 -0.3 0 Calma 4 Noroeste 0 -- -- 91
2020-03-27 02:00:00 -0.6 2 Norte 6 Oeste 0 -- -- 88
2020-03-27 01:00:00 0.3 0 Calma 7 Noroeste 0 -- -- 85
2020-03-27 00:00:00 1.3 0 Calma 5 Sudeste 0 -- -- 83
2020-03-26 23:00:00 1.9 5 Noroeste 8 Noroeste 0 -- -- 81
2020-03-26 22:00:00 4.3 4 Noroeste 9 Oeste 0 -- -- 67
2020-03-26 21:00:00 4.4 4 Norte 9 Norte 0 -- -- 72
2020-03-26 20:00:00 5.1 2 Norte 17 Norte 0 -- -- 70
2020-03-26 19:00:00 7.4 10 Norte 22 Norte 0 -- -- 60
2020-03-26 18:00:00 8.8 9 Norte 25 Noroeste 0 -- -- 53
2020-03-26 17:00:00 9.9 12 Norte 34 Noroeste 0 -- -- 49
2020-03-26 16:00:00 9.6 16 Norte 35 Noroeste 0 -- -- 52
2020-03-26 15:00:00 10.7 20 Norte 38 Norte 0 -- -- 52
2020-03-26 14:00:00 9.9 15 Norte 30 Noroeste 0 -- -- 55
2020-03-26 13:00:00 8.7 12 Norte 28 Norte 0 -- -- 59
2020-03-26 12:00:00 7.8 19 Norte 31 Norte 0 -- -- 69
2020-03-26 11:00:00 8.2 13 Noroeste 30 Noroeste 0 -- -- 59
2020-03-26 10:00:00 8.3 15 Norte 26 Norte 0 -- -- 66
2020-03-26 09:00:00 6.8 9 Noroeste 16 Oeste 0 -- -- 71
2020-03-26 08:00:00 6.1 9 Oeste 21 Oeste 0 -- -- 72
2020-03-26 07:00:00 5.3 6 Noroeste 12 Noroeste 0 -- -- 75
2020-03-26 06:00:00 5.5 3 Oeste 10 Oeste 0 -- -- 74
2020-03-26 05:00:00 5.9 5 Noroeste 10 Noroeste 0 -- -- 73
2020-03-26 04:00:00 5.7 5 Oeste 9 Sudoeste 0 -- -- 69
2020-03-26 03:00:00 4.6 0 Calma 6 Sudoeste 0 -- -- 78
2020-03-26 02:00:00 4.3 5 Oeste 10 Sudoeste 0 -- -- 79
2020-03-26 01:00:00 5.4 4 Oeste 9 Oeste 0 -- -- 74
2020-03-26 00:00:00 4.6 4 Noroeste 15 Noroeste 0 -- -- 77
2020-03-25 23:00:00 5.5 10 Nordeste 17 Nordeste 0 -- -- 69
2020-03-25 22:00:00 6 8 Noroeste 25 Nordeste 0 -- -- 73
2020-03-25 21:00:00 7.4 10 Nordeste 26 Nordeste 0 -- -- 71
2020-03-25 20:00:00 9.9 6 Nordeste 21 Norte 0 -- -- 67
2020-03-25 19:00:00 13.1 14 Norte 24 Norte 0 -- -- 48
2020-03-25 18:00:00 15.9 13 Norte 26 Norte 0 -- -- 36
2020-03-25 17:00:00 17.5 12 Norte 27 Norte 0 -- -- 35
2020-03-25 16:00:00 17.9 12 Norte 26 Norte 0 -- -- 39
2020-03-25 15:00:00 18.8 8 Este 14 Este 0 -- -- 42
2020-03-25 14:00:00 17.8 5 Nordeste 12 Este 0 -- -- 48
2020-03-25 13:00:00 16.3 4 Este 12 Este 0 -- -- 54
2020-03-25 12:00:00 13.7 4 Nordeste 12 Este 0 -- -- 67
2020-03-25 11:00:00 10.5 2 Noroeste 9 Sudoeste 0 -- -- 80
2020-03-25 10:00:00 8.4 3 Este 6 Este 0 -- -- 85
2020-03-25 09:00:00 6.2 0 Calma 5 Oeste 0 -- -- 91
2020-03-25 08:00:00 4.6 2 Noroeste 5 Oeste 0 -- -- 95
2020-03-25 07:00:00 3.5 2 Norte 4 Oeste 0 -- -- 96
2020-03-25 06:00:00 2.9 0 Calma 4 Noroeste 0 -- -- 96
2020-03-25 05:00:00 3.8 3 Noroeste 8 Sudeste 0 -- -- 94
2020-03-25 04:00:00 4.1 0 Calma 5 Noroeste 0 -- -- 93
2020-03-25 03:00:00 4.7 3 Noroeste 6 Oeste 0 -- -- 91
2020-03-25 02:00:00 5.9 4 Oeste 8 Oeste 0 -- -- 89
2020-03-25 01:00:00 6.6 4 Oeste 7 Sudoeste 0 -- -- 90
2020-03-25 00:00:00 7.5 4 Oeste 9 Sudoeste 0 -- -- 85
2020-03-24 23:00:00 9.9 3 Sudoeste 6 Oeste 0 -- -- 79
2020-03-24 22:00:00 11.2 2 Sudoeste 6 Nordeste 0 -- -- 75
2020-03-24 21:00:00 13.5 4 Nordeste 10 Este 0 -- -- 64
2020-03-24 20:00:00 14.2 5 Nordeste 9 Nordeste 0 -- -- 64
2020-03-24 19:00:00 16.4 5 Sudoeste 11 Sudoeste 0 -- -- 53
2020-03-24 18:00:00 18.7 6 Sur 14 Sur 0 -- -- 47
2020-03-24 17:00:00 18.7 5 Sudoeste 17 Sur 0 -- -- 46
2020-03-24 16:00:00 18.9 8 Sudeste 22 Sudeste 0 -- -- 47
2020-03-24 15:00:00 17.6 8 Sudeste 22 Sudeste 0 -- -- 49
2020-03-24 14:00:00 17.9 10 Sudeste 21 Sudeste 0 -- -- 47
2020-03-24 13:00:00 16.4 8 Sudeste 26 Sudeste 0 -- -- 51
2020-03-24 12:00:00 17.5 13 Sudeste 27 Sudeste 0 -- -- 52
2020-03-24 11:00:00 16 3 Oeste 9 Oeste 0 -- -- 63
2020-03-24 10:00:00 14.6 2 Noroeste 6 Oeste 0 -- -- 66
2020-03-24 09:00:00 8.9 2 Noroeste 5 Noroeste 0 -- -- 91
2020-03-24 08:00:00 6.9 4 Noroeste 8 Norte 0 -- -- 94
2020-03-24 07:00:00 4.7 2 Sudoeste 6 Oeste 0 -- -- 96
2020-03-24 06:00:00 4.9 2 Sudoeste 6 Sudoeste 0 -- -- 96
2020-03-24 05:00:00 5.4 0 Calma 5 Sudoeste 0 -- -- 95
2020-03-24 04:00:00 6.6 2 Noroeste 8 Oeste 0 -- -- 94
2020-03-24 03:00:00 7 2 Sudoeste 6 Sudoeste 0 -- -- 93
2020-03-24 02:00:00 7.9 2 Oeste 10 Nordeste 0 -- -- 89
2020-03-24 01:00:00 9.2 5 Nordeste 10 Nordeste 0 -- -- 86
2020-03-24 00:00:00 10 6 Este 15 Este 0 -- -- 84
2020-03-23 23:00:00 10.8 4 Nordeste 17 Este 0 -- -- 82
2020-03-23 22:00:00 11.2 8 Nordeste 22 Este 0 -- -- 83
2020-03-23 21:00:00 12.5 10 Este 24 Este 0 -- -- 70
2020-03-23 20:00:00 14 9 Este 21 Este 0 -- -- 61
2020-03-23 19:00:00 14.4 10 Sudeste 19 Este 0 -- -- 61
2020-03-23 18:00:00 16.5 9 Este 21 Nordeste 0 -- -- 55
2020-03-23 17:00:00 17.6 10 Este 24 Este 0 -- -- 53
2020-03-23 16:00:00 16 10 Nordeste 17 Nordeste 0 -- -- 57
2020-03-23 15:00:00 16.2 6 Este 13 Nordeste 0 -- -- 57
2020-03-23 14:00:00 15.3 6 Este 15 Este 0 -- -- 62
2020-03-23 13:00:00 13.5 0 Calma 10 Sudeste 0 -- -- 71
2020-03-23 12:00:00 12.8 4 Sur 12 Este 0 -- -- 74
2020-03-23 11:00:00 12.7 5 Nordeste 12 Nordeste 0 -- -- 75
2020-03-23 10:00:00 12.4 3 Sudeste 9 Sudeste 0 -- -- 75
2020-03-23 09:00:00 9.7 4 Oeste 7 Oeste 0 -- -- 87
2020-03-23 08:00:00 9 2 Oeste 6 Oeste 0 -- -- 91
2020-03-23 07:00:00 8.8 4 Oeste 8 Oeste 0 -- -- 91
2020-03-23 06:00:00 8.4 3 Oeste 8 Oeste 0 -- -- 92
2020-03-23 05:00:00 8.6 0 Calma 4 Noroeste 0 -- -- 92
2020-03-23 04:00:00 8.1 0 Calma 7 Oeste 0 -- -- 92
2020-03-23 03:00:00 7.3 5 Oeste 9 Oeste 0 -- -- 91
2020-03-23 02:00:00 8.3 3 Oeste 5 Noroeste 0 -- -- 90
2020-03-23 01:00:00 9.4 0 Calma 6 Nordeste 0 -- -- 86
2020-03-23 00:00:00 10 3 Nordeste 5 Nordeste 0 -- -- 83
2020-03-22 23:00:00 9.8 0 Calma 2 Norte 0 -- -- 86
2020-03-22 22:00:00 9.7 3 Noroeste 13 Nordeste 0 -- -- 83
2020-03-22 21:00:00 11.1 3 Norte 12 Nordeste 0 -- -- 79
2020-03-22 20:00:00 11 3 Sur 23 Sudeste 0 -- -- 81
2020-03-22 19:00:00 11.1 16 Sudeste 28 Sudeste 0 -- -- 83
2020-03-22 18:00:00 14.4 5 Este 19 Sudeste 0 -- -- 67
2020-03-22 17:00:00 15.9 12 Sudeste 29 Sudeste 0 -- -- 60
2020-03-22 16:00:00 16.8 10 Nordeste 19 Nordeste 0 -- -- 52
2020-03-22 15:00:00 19.5 6 Norte 19 Este 0 -- -- 46
2020-03-22 14:00:00 18.4 4 Nordeste 17 Este 0 -- -- 47
2020-03-22 13:00:00 17.7 3 Sudeste 10 Sudeste 0 -- -- 52
2020-03-22 12:00:00 15 3 Oeste 8 Sudoeste 0 -- -- 58
2020-03-22 11:00:00 13.4 3 Norte 8 Noroeste 0 -- -- 69
2020-03-22 10:00:00 9 5 Oeste 9 Oeste 0 -- -- 80
2020-03-22 09:00:00 5.7 0 Calma 4 Noroeste 0 -- -- 94
2020-03-22 08:00:00 3.4 0 Calma 3 Sudeste 0 -- -- 97
2020-03-22 07:00:00 2.4 0 Calma 3 Noroeste 0 -- -- 96
2020-03-22 06:00:00 2.9 2 Sur 4 Oeste 0 -- -- 96
2020-03-22 05:00:00 3.5 0 Calma 4 Noroeste 0 -- -- 96
2020-03-22 04:00:00 3.6 0 Calma 2 Noroeste 0 -- -- 95
2020-03-22 03:00:00 4.4 2 Oeste 5 Sur 0 -- -- 94
2020-03-22 02:00:00 5 2 Noroeste 5 Norte 0 -- -- 93
2020-03-22 01:00:00 5.7 3 Noroeste 8 Oeste 0 -- -- 91
2020-03-22 00:00:00 6.4 2 Noroeste 6 Noroeste 0 -- -- 90
2020-03-21 23:00:00 7.3 0 Calma 6 Sudoeste 0 -- -- 87
2020-03-21 22:00:00 8.9 3 Sudoeste 7 Sudoeste 0 -- -- 86
2020-03-21 21:00:00 9.7 0 Calma 8 Sur 0 -- -- 83
2020-03-21 20:00:00 12.1 4 Sudeste 15 Sudeste 0 -- -- 71
2020-03-21 19:00:00 14.1 9 Sur 18 Sur 0 -- -- 64
2020-03-21 18:00:00 17.3 8 Sudeste 19 Sudeste 0 -- -- 56
2020-03-21 17:00:00 17.7 8 Sur 21 Sudeste 0 -- -- 55
2020-03-21 16:00:00 18.6 8 Sur 17 Sudeste 0 -- -- 49
2020-03-21 15:00:00 19 8 Sudeste 17 Sudeste 0 -- -- 49
2020-03-21 14:00:00 17.7 6 Norte 14 Este 0 -- -- 54
2020-03-21 13:00:00 16.6 4 Este 12 Este 0 -- -- 54
2020-03-21 12:00:00 14 4 Norte 12 Sudeste 0 -- -- 62
2020-03-21 11:00:00 13.5 5 Noroeste 9 Noroeste 0 -- -- 65
2020-03-21 10:00:00 12.4 3 Norte 9 Norte 0 -- -- 69
2020-03-21 09:00:00 8.2 4 Norte 8 Norte 0 -- -- 92
2020-03-21 08:00:00 5.3 0 Calma 3 Oeste 0 -- -- 95
2020-03-21 07:00:00 5.4 4 Norte 10 Norte 0 -- -- 96
2020-03-21 06:00:00 4.4 2 Nordeste 5 Sudeste 0 -- -- 96
2020-03-21 05:00:00 4.9 0 Calma 5 Noroeste 0 -- -- 94
2020-03-21 04:00:00 6 3 Oeste 9 Oeste 0 -- -- 92
2020-03-21 03:00:00 5.6 2 Oeste 8 Sudoeste 0 -- -- 93
2020-03-21 02:00:00 7 3 Oeste 7 Oeste 0 -- -- 93
2020-03-21 01:00:00 7.1 2 Norte 8 Oeste 0 -- -- 90
2020-03-21 00:00:00 9.1 5 Sudoeste 9 Sudoeste 0 -- -- 84
2020-03-20 23:00:00 8.8 3 Oeste 9 Sudoeste 0 -- -- 85
2020-03-20 22:00:00 9.7 6 Oeste 9 Sudoeste 0 -- -- 82
2020-03-20 21:00:00 10.3 4 Oeste 7 Sudoeste 0 -- -- 81
2020-03-20 20:00:00 11.8 5 Oeste 7 Oeste 0 -- -- 74
2020-03-20 19:00:00 13 6 Sudeste 19 Sudeste 0 -- -- 69
2020-03-20 18:00:00 13.7 11 Sudeste 27 Sudeste 0 -- -- 65
2020-03-20 17:00:00 14.6 13 Sur 40 Sur 0 -- -- 63
2020-03-20 16:00:00 15.8 16 Sudeste 33 Sudeste 0 -- -- 58
2020-03-20 15:00:00 15.9 17 Sudeste 36 Sudeste 0 -- -- 58
2020-03-20 14:00:00 15.7 15 Sudeste 32 Sudeste 0 -- -- 59
2020-03-20 13:00:00 14.6 16 Sur 32 Sur 0 -- -- 62
2020-03-20 12:00:00 13.7 14 Sur 33 Sur 0 -- -- 60
2020-03-20 11:00:00 13.6 4 Este 19 Sudeste 0 -- -- 56
2020-03-20 10:00:00 11.1 7 Noroeste 11 Noroeste 0 -- -- 67
2020-03-20 09:00:00 8.7 4 Noroeste 11 Noroeste 0 -- -- 82
2020-03-20 08:00:00 5 2 Nordeste 8 Oeste 0 -- -- 88
2020-03-20 07:00:00 5.1 5 Oeste 8 Noroeste 0 -- -- 86
2020-03-20 06:00:00 5.9 3 Noroeste 15 Noroeste 0 -- -- 86
2020-03-20 05:00:00 7.2 4 Oeste 16 Sur 0 -- -- 84
2020-03-20 04:00:00 5.6 4 Noroeste 8 Noroeste 0 -- -- 91
2020-03-20 03:00:00 6.3 4 Oeste 6 Oeste 0 -- -- 89
2020-03-20 02:00:00 7.3 3 Oeste 7 Sudoeste 0 -- -- 85
2020-03-20 01:00:00 6.7 3 Noroeste 7 Noroeste 0 -- -- 88
2020-03-20 00:00:00 8.2 3 Noroeste 9 Noroeste 0 -- -- 81
2020-03-19 23:00:00 9.1 4 Oeste 8 Noroeste 0 -- -- 79
2020-03-19 22:00:00 9 2 Noroeste 9 Noroeste 0 -- -- 83
2020-03-19 21:00:00 10.7 3 Oeste 6 Oeste 0 -- -- 75
2020-03-19 20:00:00 12.2 0 Calma 12 Sudeste 0 -- -- 67
2020-03-19 19:00:00 14.2 3 Sur 18 Sudeste 0 -- -- 60
2020-03-19 18:00:00 16 13 Sudeste 27 Sudeste 0 -- -- 61
2020-03-19 17:00:00 18.7 14 Sudeste 26 Sudeste 0 -- -- 53
2020-03-19 16:00:00 19 13 Sudeste 26 Sudeste 0 -- -- 52
2020-03-19 15:00:00 17.4 6 Norte 13 Noroeste 0 -- -- 69
2020-03-19 14:00:00 16.7 6 Noroeste 12 Noroeste 0 -- -- 69
2020-03-19 13:00:00 16 3 Este 11 Sur 0 -- -- 70
2020-03-19 12:00:00 14.2 3 Sudeste 9 Sudeste 0 -- -- 75
2020-03-19 11:00:00 11.7 6 Sudeste 13 Sudeste 0 -- -- 84
2020-03-19 10:00:00 11.4 3 Sudeste 7 Sudeste 0 -- -- 92
2020-03-19 09:00:00 9.2 0 Calma 4 Noroeste 0 -- -- 97
2020-03-19 08:00:00 7.6 0 Calma 2 Sudoeste 0 -- -- 98
2020-03-19 07:00:00 7.4 0 Calma 3 Noroeste 0 -- -- 98
2020-03-19 06:00:00 7.5 0 Calma 3 Noroeste 0 -- -- 98
2020-03-19 05:00:00 7.3 2 Oeste 4 Oeste 0 -- -- 98
2020-03-19 04:00:00 6 0 Calma 2 Oeste 0 -- -- 97
2020-03-19 03:00:00 6.3 2 Noroeste 3 Noroeste 0 -- -- 97
2020-03-19 02:00:00 6.8 0 Calma 3 Este 0 -- -- 97
2020-03-19 01:00:00 7.3 0 Calma 2 Oeste 0 -- -- 97
2020-03-19 00:00:00 7.9 2 Oeste 3 Oeste 0 -- -- 96
2020-03-18 23:00:00 8.5 0 Calma 2 Noroeste 0 -- -- 96
2020-03-18 22:00:00 9.1 0 Calma 4 Oeste 0 -- -- 94
2020-03-18 21:00:00 10.1 3 Noroeste 3 Noroeste 0 -- -- 93
2020-03-18 20:00:00 11.3 0 Calma 4 Sur 0 -- -- 89
2020-03-18 19:00:00 13.5 0 Calma 6 Sudeste 0 -- -- 81
2020-03-18 18:00:00 15.3 3 Sudeste 10 Sudeste 0 -- -- 76
2020-03-18 17:00:00 15.8 5 Sudeste 15 Sudeste 0 -- -- 77
2020-03-18 16:00:00 16.2 4 Sur 14 Sudoeste 0 -- -- 74
2020-03-18 15:00:00 17 4 Sudoeste 16 Sudeste 0 -- -- 70
2020-03-18 14:00:00 15.8 7 Sur 19 Sudeste 0 -- -- 74
2020-03-18 13:00:00 14.7 4 Nordeste 10 Sudoeste 0 -- -- 73
2020-03-18 12:00:00 14.2 2 Noroeste 9 Sudoeste 0 -- -- 77
2020-03-18 11:00:00 11.3 3 Oeste 7 Oeste 0 -- -- 95
2020-03-18 10:00:00 9.6 3 Noroeste 5 Noroeste 0 -- -- 97
2020-03-18 09:00:00 8.8 0 Calma 5 Sur 0 -- -- 98
2020-03-18 08:00:00 7.7 2 Este 3 Sudeste 0 -- -- 99
2020-03-18 07:00:00 7.2 2 Norte 3 Este 0 -- -- 98
2020-03-18 06:00:00 7 0 Calma 4 Noroeste 0 -- -- 98
2020-03-18 05:00:00 6.6 3 Noroeste 6 Noroeste 0 -- -- 98
2020-03-18 04:00:00 6.3 2 Sur 5 Sudoeste 0 -- -- 98
2020-03-18 03:00:00 6.1 2 Oeste 4 Noroeste 0 -- -- 97
2020-03-18 02:00:00 5.8 2 Noroeste 5 Noroeste 0 -- -- 98
2020-03-18 01:00:00 5.8 0 Calma 5 Noroeste 0 -- -- 97
2020-03-18 00:00:00 6.6 0 Calma 6 Oeste 0 -- -- 97
2020-03-17 23:00:00 7.8 4 Oeste 9 Oeste 0 -- -- 96
2020-03-17 22:00:00 8.6 0 Calma 6 Oeste 0 -- -- 94
2020-03-17 21:00:00 9.8 0 Calma 5 Sudoeste 0 -- -- 93
2020-03-17 20:00:00 10.5 2 Sudeste 7 Sudoeste 0 -- -- 91
2020-03-17 19:00:00 10.9 4 Sudoeste 8 Oeste 0 -- -- 89
2020-03-17 18:00:00 11.7 2 Norte 9 Nordeste 0 -- -- 85
2020-03-17 17:00:00 11.2 4 Nordeste 10 Nordeste 0 -- -- 86
2020-03-17 16:00:00 11.1 2 Nordeste 9 Sudeste 0 -- -- 86
2020-03-17 15:00:00 10.6 3 Este 11 Nordeste 0 -- -- 88
2020-03-17 14:00:00 10.4 6 Nordeste 13 Nordeste 0 -- -- 87
2020-03-17 13:00:00 9.9 6 Nordeste 17 Nordeste 0 -- -- 91
2020-03-17 12:00:00 10 7 Nordeste 18 Este 0 -- -- 89
2020-03-17 11:00:00 9.6 6 Nordeste 13 Este 0 -- -- 90
2020-03-17 10:00:00 8.7 3 Este 10 Nordeste 0 -- -- 92
2020-03-17 09:00:00 8.3 4 Nordeste 8 Nordeste 0 -- -- 94
2020-03-17 08:00:00 8.1 3 Norte 16 Nordeste 0.4 -- -- 94
2020-03-17 07:00:00 8.2 9 Nordeste 19 Nordeste 0 -- -- 92
2020-03-17 06:00:00 8.1 6 Nordeste 14 Nordeste 0 -- -- 93
2020-03-17 05:00:00 7.7 5 Nordeste 10 Nordeste 0.2 -- -- 96
2020-03-17 04:00:00 7.6 2 Norte 5 Sudoeste 0 -- -- 95
2020-03-17 03:00:00 7.4 3 Sur 5 Sur 0.2 -- -- 95
2020-03-17 02:00:00 7.6 0 Calma 12 Nordeste 0.8 -- -- 93
2020-03-17 01:00:00 7.5 3 Nordeste 16 Nordeste 1.2 -- -- 94
2020-03-17 00:00:00 7.6 8 Nordeste 19 Nordeste 0.6 -- -- 91
2020-03-16 23:00:00 7.9 8 Nordeste 22 Nordeste 0.2 -- -- 87
2020-03-16 22:00:00 7.8 9 Nordeste 17 Nordeste 0.2 -- -- 88
2020-03-16 21:00:00 7.7 9 Nordeste 22 Nordeste 0.4 -- -- 89
2020-03-16 20:00:00 7.9 11 Norte 24 Nordeste 0.2 -- -- 86
2020-03-16 19:00:00 7.9 9 Norte 22 Nordeste 0.4 -- -- 89
2020-03-16 18:00:00 8.4 12 Nordeste 28 Nordeste 0 -- -- 86
2020-03-16 17:00:00 8.7 8 Norte 18 Nordeste 0.6 -- -- 86
2020-03-16 16:00:00 8 9 Nordeste 19 Nordeste 1 -- -- 89
2020-03-16 15:00:00 8 9 Nordeste 21 Nordeste 1 -- -- 89
2020-03-16 14:00:00 7.7 6 Norte 17 Norte 1.4 -- -- 88
2020-03-16 13:00:00 6.9 6 Norte 15 Norte 1.6 -- -- 87
2020-03-16 12:00:00 6.7 6 Norte 15 Norte 0.8 -- -- 88
2020-03-16 11:00:00 5.8 6 Norte 13 Norte 0.8 -- -- 92
2020-03-16 10:00:00 4.8 2 Norte 5 Noroeste 1.2 -- -- 94
2020-03-16 09:00:00 3.9 3 Sur 6 Sudeste 1.2 -- -- 95
2020-03-16 08:00:00 3.5 4 Sudeste 7 Sudeste 1.6 -- -- 95
2020-03-16 07:00:00 3.5 5 Sudeste 11 Sudeste 1.4 -- -- 94
2020-03-16 06:00:00 3.7 5 Sudeste 8 Sudeste 2 -- -- 92
2020-03-16 05:00:00 4 4 Norte 9 Norte 2.2 -- -- 91
2020-03-16 04:00:00 4.6 8 Norte 14 Norte 1.4 -- -- 90
2020-03-16 03:00:00 5 5 Nordeste 19 Nordeste 1.8 -- -- 89
2020-03-16 02:00:00 5.6 5 Norte 14 Norte 3 -- -- 91
2020-03-16 01:00:00 6.5 5 Nordeste 13 Nordeste 0.2 -- -- 84
2020-03-16 00:00:00 6.8 3 Nordeste 17 Nordeste 0 -- -- 86
2020-03-15 23:00:00 7 9 Norte 22 Norte 2.2 -- -- 88
2020-03-15 22:00:00 8.7 4 Noroeste 12 Nordeste 0.6 -- -- 89
2020-03-15 21:00:00 8.4 3 Este 23 Este 0.8 -- -- 92
2020-03-15 20:00:00 8.9 8 Este 22 Norte 1.6 -- -- 89
2020-03-15 19:00:00 10 3 Noroeste 31 Nordeste 1 -- -- 87
2020-03-15 18:00:00 13.6 13 Norte 26 Norte 0 -- -- 73
2020-03-15 17:00:00 21.8 4 Sudeste 12 Este 0 -- -- 41
2020-03-15 16:00:00 20.6 3 Sudeste 18 Sudeste 0 -- -- 39
2020-03-15 15:00:00 20.5 8 Sudeste 21 Sudeste 0 -- -- 43
2020-03-15 14:00:00 18.9 8 Sur 25 Este 0 -- -- 47
2020-03-15 13:00:00 17.2 10 Sur 20 Sudeste 0 -- -- 51
2020-03-15 12:00:00 14.5 4 Noroeste 10 Noroeste 0 -- -- 60
2020-03-15 11:00:00 11.9 3 Norte 8 Sudeste 0 -- -- 61
2020-03-15 10:00:00 8 4 Este 7 Nordeste 0 -- -- 83
2020-03-15 09:00:00 0.9 0 Calma 6 Noroeste 0 -- -- 95
2020-03-15 08:00:00 -0.8 3 Noroeste 5 Noroeste 0 -- -- 97
2020-03-15 07:00:00 -0.8 0 Calma 5 Oeste 0 -- -- 97
2020-03-15 06:00:00 -0.5 0 Calma 6 Noroeste 0 -- -- 96
2020-03-15 05:00:00 -0.5 2 Norte 5 Oeste 0 -- -- 96
2020-03-15 04:00:00 0.2 0 Calma 4 Oeste 0 -- -- 96
2020-03-15 03:00:00 0.9 0 Calma 4 Oeste 0 -- -- 95
2020-03-15 02:00:00 1.3 0 Calma 4 Noroeste 0 -- -- 95
2020-03-15 01:00:00 2.1 0 Calma 3 Sudoeste 0 -- -- 94
2020-03-15 00:00:00 2.8 0 Calma 3 Sudoeste 0 -- -- 93
2020-03-14 23:00:00 3.8 2 Noroeste 4 Sudoeste 0 -- -- 91
2020-03-14 22:00:00 5.3 3 Noroeste 8 Sudoeste 0 -- -- 87
2020-03-14 21:00:00 8 3 Noroeste 13 Este 0 -- -- 77
2020-03-14 20:00:00 10.9 5 Este 11 Este 0 -- -- 67
2020-03-14 19:00:00 13.7 6 Nordeste 16 Este 0 -- -- 56
2020-03-14 18:00:00 16.5 9 Nordeste 15 Nordeste 0 -- -- 47
2020-03-14 17:00:00 18.3 4 Este 13 Sudeste 0 -- -- 45
2020-03-14 16:00:00 17.2 4 Este 13 Sur 0 -- -- 46
2020-03-14 15:00:00 16.6 5 Sur 11 Sudeste 0 -- -- 48
2020-03-14 14:00:00 15.5 5 Oeste 10 Noroeste 0 -- -- 50
2020-03-14 13:00:00 13.9 4 Norte 9 Noroeste 0 -- -- 56
2020-03-14 12:00:00 11.6 2 Norte 8 Sudeste 0 -- -- 63
2020-03-14 11:00:00 9.3 2 Sudoeste 6 Noroeste 0 -- -- 68
2020-03-14 10:00:00 5.7 4 Norte 6 Noroeste 0 -- -- 78
2020-03-14 09:00:00 0.2 3 Noroeste 5 Oeste 0 -- -- 96
2020-03-14 08:00:00 -1.1 3 Noroeste 4 Noroeste 0 -- -- 96
2020-03-14 07:00:00 -1.6 2 Sudoeste 3 Sudoeste 0 -- -- 96
2020-03-14 06:00:00 -1.6 0 Calma 4 Oeste 0 -- -- 96
2020-03-14 05:00:00 -1.3 0 Calma 4 Noroeste 0 -- -- 96
2020-03-14 04:00:00 -0.9 0 Calma 5 Noroeste 0 -- -- 95
2020-03-14 03:00:00 -0.2 0 Calma 6 Oeste 0 -- -- 94
2020-03-14 02:00:00 1.4 4 Oeste 7 Oeste 0 -- -- 94
2020-03-14 01:00:00 1.3 3 Oeste 5 Oeste 0 -- -- 93
2020-03-14 00:00:00 1.7 3 Noroeste 6 Oeste 0 -- -- 92
2020-03-13 23:00:00 3.2 2 Sur 6 Sudeste 0 -- -- 91
2020-03-13 22:00:00 3.9 0 Calma 7 Nordeste 0 -- -- 88
2020-03-13 21:00:00 5.5 0 Calma 4 Nordeste 0 -- -- 85
2020-03-13 20:00:00 6.9 2 Norte 14 Norte 0 -- -- 80
2020-03-13 19:00:00 9.5 6 Norte 18 Norte 0 -- -- 69
2020-03-13 18:00:00 12.2 6 Norte 15 Nordeste 0 -- -- 59
2020-03-13 17:00:00 10.7 5 Norte 18 Nordeste 0 -- -- 69
2020-03-13 16:00:00 10.4 9 Nordeste 21 Norte 0 -- -- 72
2020-03-13 15:00:00 10 10 Nordeste 21 Nordeste 0 -- -- 75
2020-03-13 14:00:00 10.2 8 Nordeste 20 Nordeste 0 -- -- 74
2020-03-13 13:00:00 9.9 6 Norte 19 Nordeste 0 -- -- 78
2020-03-13 12:00:00 9.2 11 Nordeste 22 Nordeste 0 -- -- 82
2020-03-13 11:00:00 9.4 11 Nordeste 20 Nordeste 0 -- -- 82
2020-03-13 10:00:00 9.7 5 Nordeste 11 Este 0 -- -- 80
2020-03-13 09:00:00 8.8 6 Nordeste 13 Nordeste 0 -- -- 84
2020-03-13 08:00:00 8.5 5 Nordeste 12 Nordeste 0 -- -- 86
2020-03-13 07:00:00 8.6 7 Norte 14 Nordeste 0 -- -- 85
2020-03-13 06:00:00 8.7 7 Nordeste 14 Nordeste 0 -- -- 87
2020-03-13 05:00:00 8.3 7 Nordeste 16 Nordeste 0 -- -- 91
2020-03-13 04:00:00 9.1 8 Nordeste 14 Nordeste 0 -- -- 85
2020-03-13 03:00:00 9.5 7 Nordeste 16 Nordeste 0 -- -- 84
2020-03-13 02:00:00 9.5 4 Nordeste 7 Este 0 -- -- 86
2020-03-13 01:00:00 9.4 2 Nordeste 6 Norte 0 -- -- 86
2020-03-13 00:00:00 9.5 3 Norte 9 Noroeste 0 -- -- 86
2020-03-12 23:00:00 9.6 4 Noroeste 16 Noroeste 0 -- -- 88
2020-03-12 22:00:00 10.1 9 Noroeste 18 Noroeste 0 -- -- 87
2020-03-12 21:00:00 10.5 6 Nordeste 19 Nordeste 0 -- -- 88
2020-03-12 20:00:00 10.9 8 Norte 17 Norte 0 -- -- 85
2020-03-12 19:00:00 11.5 8 Norte 19 Nordeste 0 -- -- 82
2020-03-12 18:00:00 12.1 7 Norte 18 Nordeste 0 -- -- 81
2020-03-12 17:00:00 12.7 9 Norte 22 Nordeste 0 -- -- 78
2020-03-12 16:00:00 13 11 Nordeste 23 Nordeste 0 -- -- 77
2020-03-12 15:00:00 13.3 13 Nordeste 20 Nordeste 0 -- -- 77
2020-03-12 14:00:00 13.6 13 Nordeste 23 Nordeste 0 -- -- 77
2020-03-12 13:00:00 13.6 11 Nordeste 19 Nordeste 0 -- -- 75
2020-03-12 12:00:00 13.4 8 Nordeste 15 Nordeste 0 -- -- 76
2020-03-12 11:00:00 12.3 0 Calma 6 Sudoeste 0 -- -- 81
2020-03-12 10:00:00 10.6 4 Oeste 6 Oeste 0 -- -- 89
2020-03-12 09:00:00 8.6 0 Calma 5 Noroeste 0 -- -- 95
2020-03-12 08:00:00 6.7 0 Calma 5 Noroeste 0 -- -- 95
2020-03-12 07:00:00 6.9 0 Calma 4 Sudoeste 0 -- -- 94
2020-03-12 06:00:00 7.3 3 Noroeste 5 Oeste 0 -- -- 93
2020-03-12 05:00:00 7.7 0 Calma 4 Sudoeste 0 -- -- 94
2020-03-12 04:00:00 8.1 2 Norte 5 Sudoeste 0 -- -- 91
2020-03-12 03:00:00 8.7 2 Oeste 4 Noroeste 0 -- -- 91
2020-03-12 02:00:00 9.5 2 Norte 5 Oeste 0 -- -- 88
2020-03-12 01:00:00 10.2 0 Calma 6 Noroeste 0 -- -- 87
2020-03-12 00:00:00 11.1 3 Oeste 5 Noroeste 0 -- -- 81
2020-03-11 23:00:00 12.8 3 Sudeste 6 Sudeste 0 -- -- 72
2020-03-11 22:00:00 13.6 4 Este 8 Este 0 -- -- 66
2020-03-11 21:00:00 14.5 4 Sudeste 8 Este 0 -- -- 60
2020-03-11 20:00:00 15.8 0 Calma 9 Sudoeste 0 -- -- 58
2020-03-11 19:00:00 21.4 7 Sudoeste 12 Oeste 0 -- -- 37
2020-03-11 18:00:00 24.9 8 Oeste 22 Sudoeste 0 -- -- 29
2020-03-11 17:00:00 25.6 8 Sudoeste 20 Sudoeste 0 -- -- 28
2020-03-11 16:00:00 24.8 3 Sudeste 11 Norte 0 -- -- 40
2020-03-11 15:00:00 23.6 4 Nordeste 12 Sudeste 0 -- -- 46
2020-03-11 14:00:00 21.5 3 Este 9 Este 0 -- -- 50
2020-03-11 13:00:00 18.2 4 Norte 7 Noroeste 0 -- -- 58
2020-03-11 12:00:00 15.6 3 Norte 7 Nordeste 0 -- -- 62
2020-03-11 11:00:00 13 4 Noroeste 6 Noroeste 0 -- -- 68
2020-03-11 10:00:00 11.3 2 Noroeste 4 Oeste 0 -- -- 72
2020-03-11 09:00:00 4.2 0 Calma 3 Noroeste 0 -- -- 96
2020-03-11 08:00:00 2.5 0 Calma 3 Noroeste 0 -- -- 97
2020-03-11 07:00:00 1.9 0 Calma 3 Noroeste 0 -- -- 97
2020-03-11 06:00:00 2.5 0 Calma 4 Norte 0 -- -- 96
2020-03-11 05:00:00 2.9 0 Calma 3 Noroeste 0 -- -- 96
2020-03-11 04:00:00 3.8 2 Noroeste 5 Oeste 0 -- -- 95
2020-03-11 03:00:00 4.1 2 Noroeste 5 Sudoeste 0 -- -- 95
2020-03-11 02:00:00 5.3 0 Calma 6 Sudoeste 0 -- -- 94
2020-03-11 01:00:00 5.9 3 Sudoeste 5 Oeste 0 -- -- 94
2020-03-11 00:00:00 7 0 Calma 6 Sudoeste 0 -- -- 91
2020-03-10 23:00:00 8.5 0 Calma 5 Nordeste 0 -- -- 87
2020-03-10 22:00:00 9.5 2 Norte 9 Sudeste 0 -- -- 87
2020-03-10 21:00:00 11.3 5 Sudeste 14 Nordeste 0 -- -- 82
2020-03-10 20:00:00 13.3 7 Nordeste 17 Nordeste 0 -- -- 75
2020-03-10 19:00:00 15.7 11 Este 22 Nordeste 0 -- -- 66
2020-03-10 18:00:00 20.6 9 Nordeste 17 Nordeste 0 -- -- 50
2020-03-10 17:00:00 24.1 2 Norte 8 Norte 0 -- -- 40
2020-03-10 16:00:00 21.3 3 Norte 11 Noroeste 0 -- -- 45
2020-03-10 15:00:00 20.7 5 Noroeste 21 Sudoeste 0 -- -- 48
2020-03-10 14:00:00 19.2 11 Noroeste 27 Oeste 0 -- -- 47
2020-03-10 13:00:00 17.8 3 Sudeste 10 Este 0 -- -- 49
2020-03-10 12:00:00 13.8 4 Norte 8 Norte 0 -- -- 62
2020-03-10 11:00:00 10.5 2 Norte 5 Nordeste 0 -- -- 72
2020-03-10 10:00:00 7.3 2 Noroeste 5 Noroeste 0 -- -- 81
2020-03-10 09:00:00 4.2 0 Calma 4 Oeste 0 -- -- 94
2020-03-10 08:00:00 2.7 3 Oeste 6 Oeste 0 -- -- 96
2020-03-10 07:00:00 2.5 0 Calma 3 Noroeste 0 -- -- 96
2020-03-10 06:00:00 2.9 0 Calma 3 Noroeste 0 -- -- 96
2020-03-10 05:00:00 2.6 0 Calma 2 Noroeste 0 -- -- 95
2020-03-10 04:00:00 3 2 Oeste 4 Sudoeste 0 -- -- 95
2020-03-10 03:00:00 2.7 0 Calma 5 Oeste 0 -- -- 94
2020-03-10 02:00:00 3.3 3 Oeste 6 Oeste 0 -- -- 94
2020-03-10 01:00:00 3.4 0 Calma 6 Sudoeste 0 -- -- 93
2020-03-10 00:00:00 3.9 2 Sur 5 Oeste 0 -- -- 93
2020-03-09 23:00:00 4.8 4 Oeste 7 Oeste 0 -- -- 90
2020-03-09 22:00:00 5.3 2 Noroeste 5 Sur 0 -- -- 88
2020-03-09 21:00:00 6.6 2 Sudeste 4 Este 0 -- -- 84
2020-03-09 20:00:00 8.5 3 Nordeste 15 Nordeste 0 -- -- 76
2020-03-09 19:00:00 10.2 5 Nordeste 17 Norte 0 -- -- 70
2020-03-09 18:00:00 12.1 10 Norte 19 Norte 0 -- -- 58
2020-03-09 17:00:00 12.3 14 Norte 27 Norte 0 -- -- 59
2020-03-09 16:00:00 12.1 14 Norte 24 Norte 0 -- -- 58
2020-03-09 15:00:00 12.6 8 Noroeste 17 Noroeste 0 -- -- 57
2020-03-09 14:00:00 11 11 Noroeste 31 Noroeste 0 -- -- 72
2020-03-09 13:00:00 11.8 14 Noroeste 30 Noroeste 0 -- -- 63
2020-03-09 12:00:00 10.7 14 Noroeste 31 Oeste 0 -- -- 66
2020-03-09 11:00:00 9.9 6 Oeste 31 Noroeste 0.4 -- -- 74
2020-03-09 10:00:00 9.9 14 Noroeste 26 Noroeste 0 -- -- 69
2020-03-09 09:00:00 7.6 4 Noroeste 9 Noroeste 0 -- -- 85
2020-03-09 08:00:00 7 3 Este 10 Oeste 0 -- -- 85
2020-03-09 07:00:00 7.2 3 Oeste 13 Noroeste 0 -- -- 82
2020-03-09 06:00:00 6.7 3 Noroeste 9 Norte 0 -- -- 84
2020-03-09 05:00:00 7.1 6 Norte 14 Noroeste 0 -- -- 81
2020-03-09 04:00:00 7.3 6 Norte 25 Noroeste 0 -- -- 82
2020-03-09 03:00:00 8.2 4 Noroeste 9 Nordeste 0 -- -- 82
2020-03-09 02:00:00 8.4 3 Sudeste 9 Este 0 -- -- 84
2020-03-09 01:00:00 8.8 2 Sudeste 10 Sur 0 -- -- 84
2020-03-09 00:00:00 9.1 3 Este 9 Este 0 -- -- 85
2020-03-08 23:00:00 9.6 5 Este 13 Sudeste 0 -- -- 83
2020-03-08 22:00:00 9.9 5 Este 12 Este 0.2 -- -- 87
2020-03-08 21:00:00 10.6 3 Nordeste 17 Nordeste 0 -- -- 82
2020-03-08 20:00:00 11.6 7 Este 18 Nordeste 0 -- -- 79
2020-03-08 19:00:00 13.7 3 Sudoeste 26 Oeste 0 -- -- 66
2020-03-08 18:00:00 14.3 13 Oeste 30 Noroeste 0 -- -- 65
2020-03-08 17:00:00 14.8 12 Oeste 28 Oeste 0 -- -- 58
2020-03-08 16:00:00 14.7 15 Oeste 33 Oeste 0 -- -- 58
2020-03-08 15:00:00 15 12 Oeste 31 Oeste 0 -- -- 53
2020-03-08 14:00:00 13.8 15 Oeste 31 Oeste 0 -- -- 59
2020-03-08 13:00:00 14.5 9 Oeste 19 Noroeste 0 -- -- 61
2020-03-08 12:00:00 12.3 3 Este 8 Sudeste 0 -- -- 68
2020-03-08 11:00:00 8.1 3 Noroeste 14 Sudeste 0 -- -- 95
2020-03-08 10:00:00 5.9 3 Este 5 Sudeste 0 -- -- 95
2020-03-08 09:00:00 1.8 3 Sur 14 Sudeste 0 -- -- 98
2020-03-08 08:00:00 0.6 7 Sudeste 13 Sudeste 0 -- -- 98
2020-03-08 07:00:00 1.4 2 Sudeste 6 Norte 0 -- -- 98
2020-03-08 06:00:00 1.7 2 Este 6 Sudeste 0 -- -- 98
2020-03-08 05:00:00 2 2 Norte 4 Norte 0 -- -- 97
2020-03-08 04:00:00 1.7 3 Norte 7 Sudoeste 0 -- -- 97
2020-03-08 03:00:00 1.6 3 Oeste 6 Sudoeste 0 -- -- 97
2020-03-08 02:00:00 1.3 0 Calma 4 Noroeste 0 -- -- 97
2020-03-08 01:00:00 2 0 Calma 2 Nordeste 0 -- -- 96
2020-03-08 00:00:00 2.6 0 Calma 3 Oeste 0 -- -- 95